Time;durP1;ratioP1;P1;durP2;ratioP2;P2;SDS_P1;SDS_P2;PMS_P1;PMS_P2;Temp;Humidity;BMP_temperature;BMP_pressure;BME280_temperature;BME280_humidity;BME280_pressure;Samples;Min_cycle;Max_cycle;Signal;HPM_P1;HPM_P2
2021/08/19 00:00:40;;;;;;;5.72;3.80;;;;;;;25.13;45.69;100470.50;4440910;32;20142;-68
2021/08/19 00:03:06;;;;;;;6.72;3.78;;;;;;;25.15;45.69;100468.63;4442249;32;20013;-68
2021/08/19 00:05:33;;;;;;;5.97;3.70;;;;;;;25.01;45.65;100469.88;4437261;32;20121;-68
2021/08/19 00:07:59;;;;;;;5.82;4.03;;;;;;;25.10;45.42;100481.00;4435666;32;20552;-68
2021/08/19 00:10:25;;;;;;;4.97;3.95;;;;;;;24.47;46.82;100486.53;4435829;32;20900;-67
2021/08/19 00:12:50;;;;;;;5.72;3.50;;;;;;;24.36;47.05;100478.03;4439345;32;20105;-67
2021/08/19 00:15:16;;;;;;;6.50;3.50;;;;;;;24.70;46.30;100472.69;4439935;32;20052;-67
2021/08/19 00:17:42;;;;;;;6.15;3.90;;;;;;;24.94;45.91;100478.34;4436742;32;20118;-67
2021/08/19 00:20:09;;;;;;;6.40;4.15;;;;;;;25.00;45.60;100476.19;4435621;32;20730;-67
2021/08/19 00:22:38;;;;;;;8.50;4.55;;;;;;;24.85;46.23;100473.00;4437870;32;20033;-68
2021/08/19 00:25:05;;;;;;;6.05;3.87;;;;;;;24.87;46.03;100474.00;4439191;32;20132;-68
2021/08/19 00:27:32;;;;;;;8.10;4.32;;;;;;;25.05;45.91;100473.25;4438108;32;20167;-68
2021/08/19 00:29:58;;;;;;;8.20;3.75;;;;;;;24.87;46.11;100453.87;4436240;32;20430;-68
2021/08/19 00:32:24;;;;;;;6.37;4.30;;;;;;;25.15;45.56;100457.09;4436587;32;20525;-68
2021/08/19 00:34:50;;;;;;;4.95;3.80;;;;;;;25.01;45.88;100452.59;4437256;32;20033;-68
2021/08/19 00:37:16;;;;;;;6.18;4.10;;;;;;;25.41;45.14;100449.94;4441224;32;20495;-68
2021/08/19 00:39:43;;;;;;;5.12;3.62;;;;;;;25.53;44.74;100446.34;4437513;32;20069;-68
2021/08/19 00:42:09;;;;;;;6.75;3.50;;;;;;;25.51;44.82;100448.97;4421511;32;20075;-67
2021/08/19 00:44:35;;;;;;;5.60;3.58;;;;;;;25.44;44.81;100438.09;4435839;32;20109;-68
2021/08/19 00:47:00;;;;;;;4.80;3.58;;;;;;;25.62;44.55;100437.28;4438790;32;20304;-68
2021/08/19 00:49:26;;;;;;;8.57;3.25;;;;;;;25.63;44.42;100440.91;4433985;32;20465;-68
2021/08/19 00:51:53;;;;;;;5.60;3.60;;;;;;;25.58;44.51;100436.03;4438955;32;20169;-68
2021/08/19 00:56:56;;;;;;;5.45;3.97;;;;;;;25.79;44.62;100443.50;3998765;31;15138615;-68
2021/08/19 00:59:23;;;;;;;6.45;3.83;;;;;;;25.79;44.62;100443.50;4464609;32;20108;-68
2021/08/19 01:01:52;;;;;;;5.60;3.45;;;;;;;25.54;44.70;100438.44;4464251;32;20129;-68
2021/08/19 01:04:18;;;;;;;6.43;3.08;;;;;;;25.93;44.08;100441.41;4467602;32;20513;-68
2021/08/19 01:06:44;;;;;;;6.87;3.60;;;;;;;25.53;44.41;100431.91;4468658;32;20067;-68
2021/08/19 01:09:12;;;;;;;4.45;2.92;;;;;;;25.43;44.46;100430.00;4465388;32;20064;-68
2021/08/19 01:11:41;;;;;;;5.70;3.10;;;;;;;25.22;45.09;100430.53;4466137;32;20060;-68
2021/08/19 01:14:08;;;;;;;3.75;2.55;;;;;;;25.53;44.70;100428.25;4464291;32;20056;-68
2021/08/19 01:16:35;;;;;;;3.20;2.58;;;;;;;25.38;44.95;100423.00;4463270;32;20080;-68
2021/08/19 01:19:00;;;;;;;3.95;2.22;;;;;;;25.66;44.27;100422.50;4465428;32;20084;-68
2021/08/19 01:21:26;;;;;;;2.17;1.80;;;;;;;25.69;44.07;100424.28;4466205;32;20101;-68
2021/08/19 01:23:52;;;;;;;4.15;1.83;;;;;;;25.58;44.20;100421.62;4462627;32;20064;-68
2021/08/19 01:26:20;;;;;;;1.90;1.62;;;;;;;25.64;44.23;100431.72;4463347;32;20037;-68
2021/08/19 01:28:47;;;;;;;3.15;1.65;;;;;;;25.92;43.70;100422.56;4460894;32;20371;-68
2021/08/19 01:31:16;;;;;;;2.47;1.67;;;;;;;25.94;43.45;100434.31;4462311;32;20041;-68
2021/08/19 01:33:44;;;;;;;2.20;1.73;;;;;;;26.14;43.10;100433.72;4465714;32;20433;-68
2021/08/19 01:36:11;;;;;;;2.58;1.60;;;;;;;26.19;43.03;100429.91;4466314;32;20357;-68
2021/08/19 01:38:37;;;;;;;2.75;1.75;;;;;;;26.07;42.94;100429.38;4462318;32;20110;-68
2021/08/19 01:41:04;;;;;;;3.03;1.60;;;;;;;26.28;42.82;100429.47;4465998;32;20156;-68
2021/08/19 01:43:30;;;;;;;1.80;1.25;;;;;;;26.30;42.75;100416.06;4463922;32;20037;-68
2021/08/19 01:45:58;;;;;;;2.00;1.30;;;;;;;26.35;42.66;100425.94;4462079;32;20072;-68
2021/08/19 01:48:24;;;;;;;2.03;1.45;;;;;;;26.43;42.40;100421.03;4461119;32;20414;-68
2021/08/19 01:50:50;;;;;;;2.40;1.60;;;;;;;26.30;42.50;100415.28;4467576;32;20025;-68
2021/08/19 01:53:16;;;;;;;4.22;1.50;;;;;;;26.25;42.64;100414.06;4464921;32;20074;-68
2021/08/19 01:55:43;;;;;;;3.35;1.40;;;;;;;26.11;42.84;100414.62;4466690;32;20045;-68
2021/08/19 01:58:10;;;;;;;1.75;1.27;;;;;;;26.39;42.40;100415.63;4461631;32;20104;-68
2021/08/19 02:00:36;;;;;;;3.15;1.25;;;;;;;26.16;42.61;100419.47;4462607;32;20378;-68
2021/08/19 02:03:03;;;;;;;1.20;1.10;;;;;;;25.87;43.42;100414.78;4464076;32;20028;-68
2021/08/19 02:05:29;;;;;;;3.05;1.10;;;;;;;25.81;43.52;100414.91;4463436;32;20092;-68
2021/08/19 02:07:55;;;;;;;1.17;1.08;;;;;;;25.92;43.03;100426.22;4452148;32;20068;-68
2021/08/19 02:10:21;;;;;;;2.47;1.23;;;;;;;26.11;42.73;100420.41;4451529;32;20113;-68
2021/08/19 02:12:47;;;;;;;1.75;1.30;;;;;;;25.99;42.89;100422.72;4451885;32;20051;-68
2021/08/19 02:15:13;;;;;;;2.17;1.33;;;;;;;26.10;42.92;100431.16;4453204;32;20029;-68
2021/08/19 02:17:39;;;;;;;1.80;1.60;;;;;;;25.93;43.03;100424.13;4455502;32;20052;-68
2021/08/19 02:20:07;;;;;;;3.35;1.80;;;;;;;25.97;43.09;100419.56;4450112;32;20072;-68
2021/08/19 02:22:33;;;;;;;2.65;1.85;;;;;;;25.87;43.26;100411.91;4451147;32;20053;-68
2021/08/19 02:24:59;;;;;;;2.87;2.10;;;;;;;26.11;43.05;100412.50;4451241;32;20143;-68
2021/08/19 02:27:26;;;;;;;3.10;2.00;;;;;;;25.97;43.16;100410.13;4452647;32;20156;-68
2021/08/19 02:29:51;;;;;;;5.32;2.70;;;;;;;26.12;42.65;100413.28;4449323;32;20037;-68
2021/08/19 02:32:18;;;;;;;3.62;2.20;;;;;;;26.22;42.74;100415.16;4451578;32;20092;-68
2021/08/19 02:34:43;;;;;;;2.28;1.75;;;;;;;25.95;43.14;100407.06;4450636;32;20041;-68
2021/08/19 02:37:09;;;;;;;4.18;1.80;;;;;;;25.89;43.24;100412.91;4442329;32;20085;-68
2021/08/19 02:39:35;;;;;;;2.30;1.92;;;;;;;25.97;43.14;100410.94;4451700;32;20101;-68
2021/08/19 02:42:00;;;;;;;3.53;2.40;;;;;;;26.07;42.82;100402.63;4451759;32;20077;-68
2021/08/19 02:44:26;;;;;;;2.60;2.08;;;;;;;26.00;42.82;100397.53;4450462;32;20142;-68
2021/08/19 02:46:52;;;;;;;4.10;2.97;;;;;;;26.27;42.60;100399.09;4453430;32;20529;-68
2021/08/19 02:49:18;;;;;;;3.50;2.50;;;;;;;26.35;42.18;100403.63;4450747;32;20064;-68
2021/08/19 02:51:44;;;;;;;3.25;2.50;;;;;;;26.47;41.96;100407.81;4449859;32;20090;-68
2021/08/19 02:54:09;;;;;;;3.53;2.95;;;;;;;26.13;42.28;100404.06;4454370;32;20073;-68
2021/08/19 02:56:35;;;;;;;3.85;2.10;;;;;;;26.06;42.62;100401.06;4450372;32;20045;-68
2021/08/19 02:59:01;;;;;;;3.30;2.40;;;;;;;25.91;43.02;100400.81;4448723;32;20100;-68
2021/08/19 03:01:28;;;;;;;3.15;2.00;;;;;;;26.03;42.97;100400.09;4449195;32;20084;-67
2021/08/19 03:03:53;;;;;;;3.95;2.10;;;;;;;26.00;42.73;100401.19;4452708;32;20316;-67
2021/08/19 03:06:19;;;;;;;2.50;2.15;;;;;;;26.04;42.90;100401.62;4451356;32;20041;-68
2021/08/19 03:08:45;;;;;;;2.65;1.95;;;;;;;25.91;43.03;100398.72;4451097;32;20036;-68
2021/08/19 03:11:11;;;;;;;2.25;1.70;;;;;;;25.82;43.00;100399.16;4450338;32;20122;-68
2021/08/19 03:13:36;;;;;;;2.95;1.85;;;;;;;25.59;43.68;100400.13;4453050;32;20034;-68
2021/08/19 03:16:02;;;;;;;2.83;1.40;;;;;;;25.41;44.08;100401.75;4449602;32;20100;-68
2021/08/19 03:18:28;;;;;;;2.90;1.87;;;;;;;25.48;43.91;100397.41;4439994;32;20045;-68
2021/08/19 03:20:54;;;;;;;2.10;1.70;;;;;;;25.36;44.18;100391.09;4449734;32;20039;-68
2021/08/19 03:23:19;;;;;;;2.08;1.85;;;;;;;25.47;43.96;100393.78;4451352;32;20424;-68
2021/08/19 03:25:45;;;;;;;2.15;1.75;;;;;;;25.39;44.21;100387.09;4439759;32;20138;-68
2021/08/19 03:28:12;;;;;;;3.70;1.55;;;;;;;25.32;44.14;100384.88;4451628;32;20049;-68
2021/08/19 03:30:38;;;;;;;1.95;1.50;;;;;;;25.19;44.41;100381.94;4456047;32;20062;-68
2021/08/19 03:33:06;;;;;;;1.70;1.48;;;;;;;25.07;44.80;100383.44;4453387;32;20569;-68
2021/08/19 03:35:32;;;;;;;2.37;1.45;;;;;;;25.01;45.03;100385.63;4452136;32;20099;-68
2021/08/19 03:37:58;;;;;;;2.75;1.27;;;;;;;24.96;45.15;100381.50;4451302;32;20025;-68
2021/08/19 03:40:24;;;;;;;2.95;1.20;;;;;;;25.19;44.65;100385.56;4447408;32;20398;-68
2021/08/19 03:42:50;;;;;;;2.25;1.10;;;;;;;25.24;44.41;100386.78;4451739;32;20049;-68
2021/08/19 03:45:19;;;;;;;1.52;1.35;;;;;;;25.29;44.32;100383.06;4451893;32;20429;-68
2021/08/19 03:47:46;;;;;;;1.60;1.08;;;;;;;25.58;43.84;100392.81;4449496;32;20442;-68
2021/08/19 03:50:12;;;;;;;2.42;0.68;;;;;;;25.64;43.73;100379.84;4452674;32;20051;-68
2021/08/19 03:52:38;;;;;;;2.28;1.10;;;;;;;25.66;43.83;100382.16;4453607;32;20420;-68
2021/08/19 03:55:05;;;;;;;3.20;1.20;;;;;;;25.27;44.13;100380.72;4451557;32;20067;-68
2021/08/19 03:57:31;;;;;;;1.60;0.93;;;;;;;25.62;43.80;100375.97;4450350;32;20120;-68
2021/08/19 03:59:56;;;;;;;1.60;0.90;;;;;;;25.49;43.77;100384.59;4452093;32;20028;-68
2021/08/19 04:02:22;;;;;;;2.92;1.30;;;;;;;25.52;43.54;100383.47;4451689;32;20469;-68
2021/08/19 04:04:48;;;;;;;3.45;1.58;;;;;;;25.39;43.98;100378.47;4452353;32;20136;-68
2021/08/19 04:07:13;;;;;;;2.78;1.60;;;;;;;25.51;43.77;100374.06;4448536;32;20045;-68
2021/08/19 04:09:39;;;;;;;3.12;1.70;;;;;;;25.59;43.39;100382.81;4451734;32;20123;-68
2021/08/19 04:12:05;;;;;;;3.33;2.00;;;;;;;25.71;43.22;100370.53;4448613;32;20025;-67
2021/08/19 04:14:32;;;;;;;5.07;2.80;;;;;;;26.02;42.51;100380.47;4450074;32;20071;-67
2021/08/19 04:16:58;;;;;;;5.00;2.50;;;;;;;26.04;42.56;100378.56;4452722;32;20033;-67
2021/08/19 04:19:23;;;;;;;5.97;2.40;;;;;;;25.83;42.59;100374.75;4454526;32;20040;-67
2021/08/19 04:21:51;;;;;;;5.50;2.95;;;;;;;25.83;42.87;100376.88;4448312;32;20446;-68
2021/08/19 04:24:17;;;;;;;6.43;3.65;;;;;;;25.64;43.16;100374.06;4452927;32;20073;-67
2021/08/19 04:26:42;;;;;;;7.55;3.05;;;;;;;25.24;43.97;100381.03;4436979;32;20060;-67
2021/08/19 04:29:08;;;;;;;9.13;4.37;;;;;;;25.32;43.74;100373.34;4449670;32;20159;-67
2021/08/19 04:31:34;;;;;;;7.82;3.80;;;;;;;25.14;44.10;100372.06;4452070;32;20033;-67
2021/08/19 04:34:02;;;;;;;8.82;3.70;;;;;;;25.28;43.88;100375.75;4443065;32;20381;-67
2021/08/19 04:36:27;;;;;;;9.13;3.85;;;;;;;25.12;44.09;100371.03;4454178;32;20076;-67
2021/08/19 04:38:53;;;;;;;9.10;3.55;;;;;;;25.07;43.97;100372.66;4457913;32;20032;-67
2021/08/19 04:41:19;;;;;;;8.68;3.72;;;;;;;25.09;43.82;100369.25;4451097;32;20092;-68
2021/08/19 04:43:45;;;;;;;8.93;4.32;;;;;;;25.25;43.43;100373.97;4450544;32;20097;-67
2021/08/19 04:46:11;;;;;;;9.07;3.90;;;;;;;25.33;43.33;100367.03;4451692;32;20037;-67
2021/08/19 04:48:36;;;;;;;6.10;3.92;;;;;;;25.20;43.49;100366.97;4453705;32;20052;-67
2021/08/19 04:51:02;;;;;;;6.60;3.92;;;;;;;25.20;43.38;100371.94;4451491;32;20427;-68
2021/08/19 04:53:27;;;;;;;7.05;4.15;;;;;;;25.11;43.43;100376.03;4451400;32;20029;-68
2021/08/19 04:55:53;;;;;;;11.75;4.55;;;;;;;25.19;43.20;100382.69;4452626;32;20111;-68
2021/08/19 04:58:19;;;;;;;14.27;5.30;;;;;;;25.19;42.89;100376.91;4448992;32;20122;-68
2021/08/19 05:00:45;;;;;;;6.10;3.55;;;;;;;25.04;43.21;100373.75;4450823;32;20128;-68
2021/08/19 05:03:10;;;;;;;8.35;4.00;;;;;;;25.35;42.57;100372.25;4448224;32;20081;-67
2021/08/19 05:05:36;;;;;;;12.18;4.32;;;;;;;25.35;42.37;100372.25;4450869;32;20108;-67
2021/08/19 05:08:02;;;;;;;8.32;4.00;;;;;;;25.39;42.12;100369.81;4450593;32;20308;-67
2021/08/19 05:10:28;;;;;;;9.52;4.70;;;;;;;25.38;42.35;100368.28;4453181;32;20033;-68
2021/08/19 05:12:54;;;;;;;11.02;4.78;;;;;;;25.17;42.83;100370.97;4450895;32;20429;-68
2021/08/19 05:15:20;;;;;;;7.75;3.60;;;;;;;25.44;41.91;100374.72;4448734;32;20049;-68
2021/08/19 05:17:46;;;;;;;8.32;4.10;;;;;;;25.56;42.01;100364.53;4448051;32;20384;-68
2021/08/19 05:20:13;;;;;;;8.02;3.97;;;;;;;25.60;41.92;100370.75;4452386;32;20068;-68
2021/08/19 05:22:39;;;;;;;9.32;4.20;;;;;;;25.48;42.25;100365.72;4452666;32;20161;-68
2021/08/19 05:25:06;;;;;;;10.07;4.70;;;;;;;25.66;41.56;100368.53;4448909;32;20034;-68
2021/08/19 05:27:32;;;;;;;7.72;4.07;;;;;;;26.03;41.09;100365.47;4447656;32;20068;-68
2021/08/19 05:29:57;;;;;;;8.48;4.32;;;;;;;26.04;40.93;100378.56;4453108;32;20469;-67
2021/08/19 05:32:23;;;;;;;9.63;4.07;;;;;;;26.08;40.68;100370.34;4451698;32;20041;-67
2021/08/19 05:34:49;;;;;;;7.82;4.00;;;;;;;26.19;40.52;100373.00;4448991;32;20069;-67
2021/08/19 05:37:18;;;;;;;7.97;4.47;;;;;;;26.17;40.48;100372.03;4452228;32;20033;-67
2021/08/19 05:39:43;;;;;;;12.05;4.85;;;;;;;25.84;40.69;100364.78;4452137;32;20067;-67
2021/08/19 05:42:09;;;;;;;6.53;4.28;;;;;;;25.67;40.70;100372.97;4449818;32;20092;-67
2021/08/19 05:44:36;;;;;;;8.05;4.28;;;;;;;25.90;40.39;100373.31;4454946;32;20056;-67
2021/08/19 05:47:05;;;;;;;8.18;4.53;;;;;;;25.79;40.72;100379.28;4451739;32;20029;-67
2021/08/19 05:49:34;;;;;;;8.45;5.00;;;;;;;26.10;39.99;100385.00;4452349;32;20386;-69
2021/08/19 05:52:00;;;;;;;11.98;5.57;;;;;;;26.07;40.03;100370.91;4451777;32;20045;-69
2021/08/19 05:54:25;;;;;;;11.10;5.55;;;;;;;26.02;39.92;100378.34;4455341;32;20099;-67
2021/08/19 05:56:51;;;;;;;8.98;5.37;;;;;;;25.83;40.36;100382.63;4455450;32;20152;-67
2021/08/19 05:59:17;;;;;;;12.82;5.20;;;;;;;25.56;40.61;100376.06;4450115;32;20485;-67
2021/08/19 06:01:42;;;;;;;11.15;5.32;;;;;;;25.73;40.40;100367.09;4438608;32;20129;-67
2021/08/19 06:04:08;;;;;;;10.07;5.43;;;;;;;25.15;41.45;100364.97;4454848;32;20155;-69
2021/08/19 06:06:34;;;;;;;9.38;5.87;;;;;;;25.19;41.42;100361.75;4451339;32;20188;-68
2021/08/19 06:09:00;;;;;;;10.65;6.07;;;;;;;25.31;41.11;100357.34;4452472;32;20088;-69
2021/08/19 06:11:25;;;;;;;11.93;6.07;;;;;;;25.52;40.57;100354.66;4458401;32;20063;-69
2021/08/19 06:13:51;;;;;;;9.90;6.00;;;;;;;25.47;40.77;100359.22;4453542;32;20438;-68
2021/08/19 06:16:17;;;;;;;12.93;6.10;;;;;;;25.22;41.05;100358.53;4454432;32;20438;-67
2021/08/19 06:18:43;;;;;;;9.80;6.50;;;;;;;24.94;41.77;100361.09;4454212;32;20052;-67
2021/08/19 06:21:09;;;;;;;11.63;6.45;;;;;;;24.96;41.84;100360.56;4455341;32;20151;-67
2021/08/19 06:23:35;;;;;;;14.27;7.22;;;;;;;25.29;41.46;100365.78;4449791;32;20018;-67
2021/08/19 06:26:03;;;;;;;14.68;7.62;;;;;;;25.23;41.34;100365.09;4451112;32;20079;-67
2021/08/19 06:28:28;;;;;;;15.75;7.28;;;;;;;25.09;41.69;100366.37;4450889;32;20138;-67
2021/08/19 06:30:54;;;;;;;13.13;7.90;;;;;;;24.76;42.25;100364.03;4449300;32;20080;-69
2021/08/19 06:33:20;;;;;;;11.27;7.43;;;;;;;24.73;42.21;100357.25;4452792;32;20041;-67
2021/08/19 06:35:46;;;;;;;12.10;6.97;;;;;;;25.19;41.44;100371.16;4452171;32;20040;-67
2021/08/19 06:38:14;;;;;;;11.35;6.37;;;;;;;24.93;41.80;100370.28;4449923;32;20354;-67
2021/08/19 06:40:40;;;;;;;13.82;7.53;;;;;;;25.01;41.64;100374.84;4449630;32;20077;-67
2021/08/19 06:43:06;;;;;;;10.95;6.87;;;;;;;24.70;42.29;100366.22;4453528;32;20048;-67
2021/08/19 06:45:32;;;;;;;12.77;6.93;;;;;;;24.60;42.47;100368.66;4450261;32;20413;-67
2021/08/19 06:47:57;;;;;;;11.55;6.57;;;;;;;24.77;42.08;100366.34;4449772;32;20066;-67
2021/08/19 06:50:23;;;;;;;11.75;6.85;;;;;;;25.03;41.54;100359.91;4454522;32;20533;-67
2021/08/19 06:52:48;;;;;;;11.98;6.75;;;;;;;24.72;42.21;100367.22;4451505;32;20485;-67
2021/08/19 06:55:14;;;;;;;13.43;6.50;;;;;;;25.18;41.47;100377.47;4454965;32;20112;-67
2021/08/19 06:57:40;;;;;;;12.37;6.87;;;;;;;25.09;41.65;100372.91;4452900;32;20511;-67
2021/08/19 07:00:08;;;;;;;10.00;6.70;;;;;;;25.60;40.78;100369.97;4452244;32;20060;-67
2021/08/19 07:02:34;;;;;;;11.52;7.00;;;;;;;25.71;40.44;100369.75;4448224;32;20494;-67
2021/08/19 07:05:00;;;;;;;11.65;5.97;;;;;;;25.91;40.00;100369.09;4455827;32;20441;-67
2021/08/19 07:07:28;;;;;;;10.70;5.70;;;;;;;26.20;39.44;100363.00;4452766;32;20076;-67
2021/08/19 07:09:55;;;;;;;9.45;5.62;;;;;;;26.31;38.93;100356.25;4449890;32;20067;-67
2021/08/19 07:12:22;;;;;;;8.38;5.55;;;;;;;26.50;38.45;100368.41;4448802;32;20179;-67
2021/08/19 07:14:48;;;;;;;8.95;5.60;;;;;;;26.59;38.35;100359.28;4449043;32;20277;-67
2021/08/19 07:17:14;;;;;;;10.32;5.72;;;;;;;26.69;37.97;100366.94;4452638;32;20063;-67
2021/08/19 07:19:40;;;;;;;8.23;5.32;;;;;;;26.75;37.91;100363.94;4447447;32;20042;-67
2021/08/19 07:22:06;;;;;;;10.85;5.43;;;;;;;26.96;37.43;100370.50;4450723;32;20466;-67
2021/08/19 07:24:31;;;;;;;9.98;5.37;;;;;;;26.77;37.61;100355.50;4449847;32;20146;-67
2021/08/19 07:26:58;;;;;;;13.45;5.93;;;;;;;26.72;37.58;100362.19;4452554;32;20102;-67
2021/08/19 07:29:24;;;;;;;7.25;5.05;;;;;;;27.17;36.66;100365.53;4452313;32;20024;-67
2021/08/19 07:31:49;;;;;;;8.15;5.05;;;;;;;27.10;36.75;100361.25;4454225;32;20619;-67
2021/08/19 07:34:15;;;;;;;8.77;5.25;;;;;;;26.31;37.75;100376.44;4452512;32;20475;-67
2021/08/19 07:36:41;;;;;;;8.05;5.22;;;;;;;26.81;37.11;100370.34;4456161;32;20061;-67
2021/08/19 07:39:06;;;;;;;8.18;5.15;;;;;;;26.89;36.84;100365.44;4435908;32;20132;-67
2021/08/19 07:41:34;;;;;;;8.80;5.10;;;;;;;27.06;36.52;100363.69;4452939;32;20442;-68
2021/08/19 07:44:01;;;;;;;7.57;4.53;;;;;;;26.93;36.51;100365.84;4445997;32;20071;-67
2021/08/19 07:46:27;;;;;;;8.57;4.40;;;;;;;26.81;36.55;100373.22;4446572;32;20094;-67
2021/08/19 07:48:56;;;;;;;10.25;4.45;;;;;;;26.40;35.68;100370.22;4431980;32;20041;-68
2021/08/19 07:51:23;;;;;;;7.82;3.95;;;;;;;26.50;35.45;100369.19;4447694;32;20090;-67
2021/08/19 07:53:49;;;;;;;8.73;3.47;;;;;;;26.49;35.67;100361.88;4452470;32;20041;-67
2021/08/19 07:56:15;;;;;;;7.62;3.50;;;;;;;26.44;34.63;100374.31;4450598;32;20049;-67
2021/08/19 07:58:41;;;;;;;5.18;3.22;;;;;;;26.18;34.88;100385.09;4446403;32;20049;-67
2021/08/19 08:01:07;;;;;;;7.28;3.60;;;;;;;26.20;34.95;100368.03;4447783;32;20383;-67
2021/08/19 08:03:33;;;;;;;10.77;3.97;;;;;;;26.27;34.40;100376.78;4449759;32;20045;-68
2021/08/19 08:05:59;;;;;;;7.18;3.25;;;;;;;26.63;33.91;100377.09;4455806;32;20081;-68
2021/08/19 08:08:24;;;;;;;8.30;3.90;;;;;;;26.70;33.82;100370.62;4449403;32;20014;-68
2021/08/19 08:10:51;;;;;;;8.45;3.60;;;;;;;26.96;33.32;100370.50;4451825;32;20069;-68
2021/08/19 08:13:17;;;;;;;6.78;3.40;;;;;;;27.17;32.86;100375.00;4449243;32;20119;-68
2021/08/19 08:15:43;;;;;;;8.95;4.35;;;;;;;27.55;32.42;100384.00;4448988;32;20194;-68
2021/08/19 08:18:14;;;;;;;7.35;3.62;;;;;;;27.87;31.98;100389.50;4450186;32;20046;-67
2021/08/19 08:20:40;;;;;;;6.32;3.37;;;;;;;28.10;31.39;100387.56;4448718;32;20077;-67
2021/08/19 08:23:05;;;;;;;6.55;3.60;;;;;;;27.52;32.33;100384.38;4448018;32;20203;-67
2021/08/19 08:25:31;;;;;;;8.65;3.83;;;;;;;27.63;32.06;100378.28;4451135;32;20104;-67
2021/08/19 08:30:33;;;;;;;6.85;3.78;;;;;;;27.69;31.41;100390.47;3958898;32;15722593;-68
2021/08/19 08:33:00;;;;;;;9.13;3.70;;;;;;;27.69;31.41;100390.47;4434052;32;20335;-68
2021/08/19 08:35:26;;;;;;;6.53;3.40;;;;;;;27.68;31.46;100386.06;4434984;32;20025;-68
2021/08/19 08:37:52;;;;;;;9.30;3.80;;;;;;;27.87;30.77;100383.72;4433871;32;20050;-68
2021/08/19 08:40:19;;;;;;;9.73;4.20;;;;;;;27.85;30.96;100387.16;4435859;32;20046;-68
2021/08/19 08:42:46;;;;;;;7.43;3.78;;;;;;;28.10;30.44;100393.34;4432626;32;20487;-68
2021/08/19 08:45:13;;;;;;;8.65;3.50;;;;;;;28.11;30.57;100389.09;4435932;32;20168;-68
2021/08/19 08:47:40;;;;;;;11.38;3.78;;;;;;;27.79;30.59;100397.34;4436086;32;20425;-68
2021/08/19 08:50:07;;;;;;;8.50;3.67;;;;;;;27.80;31.19;100393.09;4434076;32;20061;-68
2021/08/19 08:52:34;;;;;;;7.28;3.67;;;;;;;28.22;30.95;100385.87;4435702;32;20050;-68
2021/08/19 08:55:04;;;;;;;7.15;3.35;;;;;;;28.15;30.73;100390.28;4433224;32;20099;-68
2021/08/19 08:57:35;;;;;;;5.30;3.30;;;;;;;28.36;30.50;100390.97;4435906;32;20120;-68
2021/08/19 09:00:01;;;;;;;6.45;3.67;;;;;;;29.07;29.44;100395.16;4429865;32;20098;-68
2021/08/19 09:02:27;;;;;;;8.10;3.33;;;;;;;28.27;30.56;100396.50;4433366;32;20140;-68
2021/08/19 09:05:22;;;;;;;8.30;3.37;;;;;;;28.87;29.81;100391.03;4430652;32;20024;-68
2021/08/19 09:10:33;;;;;;;5.75;3.40;;;;;;;29.63;28.46;100400.69;3973671;32;15023708;-68
2021/08/19 09:13:09;;;;;;;8.93;3.87;;;;;;;29.63;28.46;100400.69;4422613;32;20086;-68
2021/08/19 09:15:35;;;;;;;5.62;3.50;;;;;;;29.44;28.54;100397.31;4421613;32;20057;-68
2021/08/19 09:18:02;;;;;;;7.07;3.75;;;;;;;28.78;29.28;100395.22;4418878;32;20391;-68
2021/08/19 09:20:34;;;;;;;11.43;3.65;;;;;;;29.03;28.92;100395.50;4420927;32;21112;-68
2021/08/19 09:31:07;;;;;;;6.72;3.85;;;;;;;29.91;28.07;100403.37;3954926;32;15723330;-68
2021/08/19 09:33:35;;;;;;;5.67;3.40;;;;;;;29.91;28.07;100403.37;4431671;32;20125;-68
2021/08/19 09:36:06;;;;;;;6.87;3.72;;;;;;;29.33;28.80;100406.41;4437885;32;20104;-68
2021/08/19 09:41:17;;;;;;;6.80;3.28;;;;;;;30.49;27.61;100409.63;3985396;32;15022570;-68
2021/08/19 09:43:52;;;;;;;7.53;3.60;;;;;;;30.49;27.61;100409.63;4439195;32;20221;-68
2021/08/19 09:46:34;;;;;;;;;;;;;;;30.23;27.62;100400.63;4439001;32;20038;-67
2021/08/19 09:49:02;;;;;;;9.35;3.00;;;;;;;30.78;27.22;100396.41;4440298;32;19961;-67
2021/08/19 09:51:29;;;;;;;6.22;3.15;;;;;;;30.67;27.22;100393.88;4440426;32;20348;-69
2021/08/19 09:53:58;;;;;;;5.20;2.80;;;;;;;30.89;26.78;100394.41;4439888;32;20597;-67
2021/08/19 09:56:29;;;;;;;6.45;2.85;;;;;;;31.60;26.32;100396.47;4440304;32;20135;-67
2021/08/19 09:59:16;;;;;;;5.18;2.80;;;;;;;31.61;26.22;100395.09;4436933;32;20034;-68
2021/08/19 10:01:41;;;;;;;6.50;3.25;;;;;;;31.54;26.43;100382.16;4438096;32;20025;-67
2021/08/19 10:04:07;;;;;;;6.00;3.20;;;;;;;31.61;26.46;100387.16;4441549;32;20082;-67
2021/08/19 10:06:33;;;;;;;4.80;2.58;;;;;;;31.43;26.67;100385.56;4439629;32;20092;-67
2021/08/19 10:08:59;;;;;;;5.82;2.70;;;;;;;32.04;26.21;100383.69;4440289;32;20033;-67
2021/08/19 10:11:26;;;;;;;7.15;2.87;;;;;;;31.96;26.23;100394.62;4436807;32;20368;-67
2021/08/19 10:13:53;;;;;;;3.95;2.50;;;;;;;32.72;25.29;100390.88;4437303;32;20052;-67
2021/08/19 10:16:19;;;;;;;5.70;3.10;;;;;;;33.30;24.88;100389.87;4434924;32;20116;-67
2021/08/19 10:18:48;;;;;;;9.77;4.30;;;;;;;32.99;25.07;100385.87;4441499;32;20034;-67
2021/08/19 10:21:16;;;;;;;6.22;3.70;;;;;;;33.15;24.68;100384.25;4438784;32;20343;-68
2021/08/19 10:23:46;;;;;;;6.85;3.67;;;;;;;33.16;24.60;100380.00;4440805;32;20171;-67
2021/08/19 10:26:20;;;;;;;6.65;3.08;;;;;;;32.75;24.98;100386.75;4436658;32;20047;-67
2021/08/19 10:28:50;;;;;;;8.40;3.03;;;;;;;32.79;25.05;100376.19;4438750;32;20062;-67
2021/08/19 10:34:52;;;;;;;6.30;3.37;;;;;;;32.23;26.28;100378.03;3978654;32;15026109;-67
2021/08/19 10:37:18;;;;;;;6.68;3.30;;;;;;;32.23;26.28;100378.03;4432419;32;20077;-67
2021/08/19 10:39:44;;;;;;;10.02;3.25;;;;;;;31.41;27.18;100370.06;4435390;32;20038;-67
2021/08/19 10:42:11;;;;;;;6.10;3.08;;;;;;;31.93;26.71;100374.66;4424185;32;20077;-67
2021/08/19 10:44:44;;;;;;;9.52;4.22;;;;;;;31.98;26.59;100376.56;4434748;32;20034;-67
2021/08/19 10:47:33;;;;;;;7.03;2.80;;;;;;;31.92;26.78;100381.84;4432738;32;20085;-67
2021/08/19 10:50:24;;;;;;;7.10;2.87;;;;;;;32.09;26.56;100376.81;4432830;32;20064;-67
2021/08/19 10:52:50;;;;;;;8.63;3.53;;;;;;;31.46;27.57;100366.13;4435364;32;20051;-67
2021/08/19 10:55:19;;;;;;;9.70;3.10;;;;;;;31.03;28.03;100363.69;4429907;32;20136;-68
2021/08/19 10:57:48;;;;;;;6.85;3.35;;;;;;;30.51;28.75;100363.38;4435084;32;20088;-67
2021/08/19 11:00:14;;;;;;;5.65;3.30;;;;;;;30.61;28.90;100364.28;4436064;32;20033;-67
2021/08/19 11:10:37;;;;;;;7.07;2.87;;;;;;;31.66;27.57;100370.81;3985104;32;15023624;-68
2021/08/19 11:15:48;;;;;;;5.85;2.80;;;;;;;31.67;27.71;100367.31;3953822;32;15724421;-69
2021/08/19 11:18:32;;;;;;;5.10;2.80;;;;;;;31.67;27.71;100367.31;4435091;32;20055;-68
2021/08/19 11:20:58;;;;;;;6.50;2.60;;;;;;;31.18;28.16;100378.91;4435405;32;20139;-68
2021/08/19 11:23:28;;;;;;;6.05;2.83;;;;;;;30.38;29.39;100375.25;4434080;32;20034;-68
2021/08/19 11:26:02;;;;;;;5.50;2.40;;;;;;;30.49;29.63;100366.06;4431819;32;20042;-68
2021/08/19 11:31:16;;;;;;;7.78;3.08;;;;;;;30.66;30.35;100385.75;3983938;32;15023241;-68
2021/08/19 11:33:43;;;;;;;6.28;2.80;;;;;;;30.66;30.35;100385.75;4432669;32;20106;-68
2021/08/19 11:36:10;;;;;;;8.88;3.10;;;;;;;30.33;32.00;100379.13;4435168;32;20034;-67
2021/08/19 11:38:36;;;;;;;4.53;2.85;;;;;;;30.43;33.50;100374.22;4434295;32;20053;-68
2021/08/19 11:41:14;;;;;;;4.90;2.72;;;;;;;29.58;34.69;100382.09;4431797;32;20054;-67
2021/08/19 11:43:42;;;;;;;6.50;2.75;;;;;;;29.09;36.00;100383.75;4435206;32;20490;-68
2021/08/19 11:48:49;;;;;;;6.18;3.12;;;;;;;28.25;37.91;100376.03;3980870;32;15148876;-68
2021/08/19 11:51:37;;;;;;;8.90;3.17;;;;;;;28.25;37.91;100376.03;4436420;32;20103;-68
2021/08/19 11:54:06;;;;;;;6.97;3.08;;;;;;;28.67;38.27;100378.22;4433956;32;20116;-67
2021/08/19 11:56:34;;;;;;;10.07;3.45;;;;;;;28.98;37.40;100376.94;4436487;32;20313;-67
2021/08/19 11:59:02;;;;;;;7.25;3.55;;;;;;;29.23;36.46;100385.91;4440709;32;20064;-67
2021/08/19 12:01:30;;;;;;;7.18;3.62;;;;;;;29.51;37.68;100379.94;4440759;32;20065;-67